Time;durP1;ratioP1;P1;durP2;ratioP2;P2;SDS_P1;SDS_P2;PMS_P1;PMS_P2;Temp;Humidity;BMP_temperature;BMP_pressure;BME280_temperature;BME280_humidity;BME280_pressure;Samples;Min_cycle;Max_cycle;Signal;HPM_P1;HPM_P2
2022/05/07 00:02:03;;;;;;;;;;;;;;;10.72;nan;100099.69;4922306;29;19966;-72
2022/05/07 00:04:28;;;;;;;;;;;;;;;10.68;nan;100095.53;4920739;29;19970;-71
2022/05/07 00:06:54;;;;;;;;;;;;;;;10.60;nan;100090.69;4916242;29;20021;-72
2022/05/07 00:09:20;;;;;;;;;;;;;;;10.51;nan;100079.88;4916051;29;19993;-73
2022/05/07 00:11:48;;;;;;;;;;;;;;;10.45;nan;100083.69;4919626;29;20020;-72
2022/05/07 00:14:14;;;;;;;;;;;;;;;10.41;nan;100076.91;4914276;29;20485;-72
2022/05/07 00:19:24;;;;;;;;;;;;;;;10.35;nan;100083.34;4920341;29;19932;-72
2022/05/07 00:21:49;;;;;;;;;;;;;;;10.33;nan;100077.31;4910949;29;20516;-72
2022/05/07 00:24:14;;;;;;;;;;;;;;;10.29;nan;100073.19;4924059;29;20605;-76
2022/05/07 00:26:40;;;;;;;;;;;;;;;10.29;nan;100077.56;4916259;29;19958;-73
2022/05/07 00:29:05;;;;;;;;;;;;;;;10.30;nan;100072.25;4924730;29;20074;-72
2022/05/07 00:31:31;;;;;;;;;;;;;;;10.33;nan;100068.59;4919552;29;20292;-72
2022/05/07 00:33:56;;;;;;;;;;;;;;;10.36;nan;100068.44;4927527;29;19977;-72
2022/05/07 00:36:21;;;;;;;;;;;;;;;10.37;nan;100067.53;4912088;29;19966;-73
2022/05/07 00:38:47;;;;;;;;;;;;;;;10.35;nan;100075.47;4909433;29;20020;-73
2022/05/07 00:41:12;;;;;;;;;;;;;;;10.28;nan;100068.00;4924389;29;20656;-73
2022/05/07 00:43:39;;;;;;;;;;;;;;;10.23;nan;100065.59;4927135;29;19974;-72
2022/05/07 00:46:05;;;;;;;;;;;;;;;10.10;nan;100069.81;4912791;29;20200;-73
2022/05/07 00:48:30;;;;;;;;;;;;;;;9.91;nan;100062.09;4910793;29;19976;-73
2022/05/07 00:53:40;;;;;;;;;;;;;;;9.46;nan;100067.06;4943029;29;20646;-72
2022/05/07 00:56:07;;;;;;;;;;;;;;;9.31;nan;100073.94;4922391;29;20016;-72
2022/05/07 00:58:33;;;;;;;;;;;;;;;9.22;nan;100079.66;4932223;29;19976;-73
2022/05/07 01:00:59;;;;;;;;;;;;;;;9.19;nan;100076.34;4928966;29;20089;-72
2022/05/07 01:03:24;;;;;;;;;;;;;;;9.20;nan;100065.75;4930937;29;20073;-72
2022/05/07 01:05:50;;;;;;;;;;;;;;;9.23;nan;100062.97;4923589;29;19970;-73
2022/05/07 01:08:15;;;;;;;;;;;;;;;9.23;nan;100065.59;4923579;29;20597;-72
2022/05/07 01:10:42;;;;;;;;;;;;;;;9.26;nan;100067.22;4910770;29;20187;-72
2022/05/07 01:13:09;;;;;;;;;;;;;;;9.26;nan;100064.59;4925015;29;20402;-72
2022/05/07 01:15:45;;;;;;;;;;;;;;;9.28;nan;100068.00;4923299;29;19966;-72
2022/05/07 01:18:13;;;;;;;;;;;;;;;9.33;nan;100063.38;4940659;29;19965;-72
2022/05/07 01:20:39;;;;;;;;;;;;;;;9.32;nan;100059.06;4923382;29;20005;-72
2022/05/07 01:23:05;;;;;;;;;;;;;;;9.33;nan;100060.75;4922916;29;20096;-72
2022/05/07 01:25:31;;;;;;;;;;;;;;;9.30;nan;100059.13;4923105;29;20375;-72
2022/05/07 01:27:56;;;;;;;;;;;;;;;9.31;nan;100057.34;4940281;28;19970;-71
2022/05/07 01:30:23;;;;;;;;;;;;;;;9.29;nan;100054.00;4917042;29;19990;-72
2022/05/07 01:32:48;;;;;;;;;;;;;;;9.27;nan;100056.69;4939889;28;20068;-72
2022/05/07 01:35:13;;;;;;;;;;;;;;;9.26;nan;100049.75;4926941;29;20413;-72
2022/05/07 01:37:41;;;;;;;;;;;;;;;9.29;nan;100054.00;4922850;29;20009;-72
2022/05/07 01:40:06;;;;;;;;;;;;;;;9.28;nan;100055.75;4926022;29;20040;-72
2022/05/07 01:42:32;;;;;;;;;;;;;;;9.26;nan;100051.50;4926516;29;20359;-72
2022/05/07 01:44:58;;;;;;;;;;;;;;;9.27;nan;100058.47;4920902;29;19969;-72
2022/05/07 01:50:08;;;;;;;;;;;;;;;9.33;nan;100050.28;4943061;29;20006;-72
2022/05/07 01:52:33;;;;;;;;;;;;;;;9.34;nan;100043.25;4927572;29;19986;-72
2022/05/07 01:54:59;;;;;;;;;;;;;;;9.35;nan;100053.66;4927075;29;19973;-72
2022/05/07 01:57:24;;;;;;;;;;;;;;;9.36;nan;100044.88;4929849;29;20465;-72
2022/05/07 01:59:50;;;;;;;;;;;;;;;9.41;nan;100053.34;4943090;28;19966;-72
2022/05/07 02:02:16;;;;;;;;;;;;;;;9.39;nan;100049.94;4925784;29;20001;-72
2022/05/07 02:04:41;;;;;;;;;;;;;;;9.36;nan;100044.88;4924902;29;19967;-72
2022/05/07 02:07:08;;;;;;;;;;;;;;;9.22;nan;100048.19;4928711;29;20912;-73
2022/05/07 02:09:35;;;;;;;;;;;;;;;9.04;nan;100057.81;4929355;29;20525;-72
2022/05/07 02:12:00;;;;;;;;;;;;;;;8.88;nan;100049.03;4926932;29;19990;-72
2022/05/07 02:14:29;;;;;;;;;;;;;;;8.80;nan;100046.81;4927201;29;19978;-72
2022/05/07 02:16:54;;;;;;;;;;;;;;;8.87;nan;100065.69;4926443;29;19973;-72
2022/05/07 02:19:19;;;;;;;;;;;;;;;8.88;nan;100054.28;4929271;29;19970;-72
2022/05/07 02:21:45;;;;;;;;;;;;;;;8.88;nan;100048.19;4927326;29;20594;-72
2022/05/07 02:24:10;;;;;;;;;;;;;;;8.86;nan;100058.75;4926391;29;19970;-72
2022/05/07 02:26:35;;;;;;;;;;;;;;;8.82;nan;100063.28;4927368;29;19966;-72
2022/05/07 02:29:02;;;;;;;;;;;;;;;8.71;nan;100062.13;4925143;29;20340;-71
2022/05/07 02:31:29;;;;;;;;;;;;;;;8.57;nan;100065.41;4940720;28;20025;-72
2022/05/07 02:33:54;;;;;;;;;;;;;;;8.47;nan;100062.38;4919584;29;20447;-72
2022/05/07 02:36:20;;;;;;;;;;;;;;;8.43;nan;100057.38;4928956;29;20406;-73
2022/05/07 02:38:45;;;;;;;;;;;;;;;8.45;nan;100064.22;4921684;29;20021;-73
2022/05/07 02:43:57;;;;;;;;;;;;;;;8.56;nan;100069.81;4945552;29;20426;-72
2022/05/07 02:46:23;;;;;;;;;;;;;;;8.53;nan;100058.63;4924866;29;19970;-72
2022/05/07 02:48:48;;;;;;;;;;;;;;;8.53;nan;100066.47;4928490;29;20104;-72
2022/05/07 02:51:17;;;;;;;;;;;;;;;8.51;nan;100058.69;4926579;29;20058;-72
2022/05/07 02:53:43;;;;;;;;;;;;;;;8.44;nan;100059.06;4918907;29;19970;-73
2022/05/07 02:56:09;;;;;;;;;;;;;;;8.36;nan;100062.84;4924507;29;20343;-72
2022/05/07 02:58:34;;;;;;;;;;;;;;;8.31;nan;100062.22;4927578;29;21052;-72
2022/05/07 03:01:00;;;;;;;;;;;;;;;8.28;nan;100058.91;4925439;29;19996;-73
2022/05/07 03:03:27;;;;;;;;;;;;;;;8.23;nan;100055.66;4926154;29;20069;-72
2022/05/07 03:05:59;;;;;;;;;;;;;;;8.27;nan;100058.06;4925775;29;20032;-72
2022/05/07 03:08:25;;;;;;;;;;;;;;;8.30;nan;100057.06;4944848;28;20060;-72
2022/05/07 03:10:50;;;;;;;;;;;;;;;8.32;nan;100052.63;4918421;29;20036;-73
2022/05/07 03:13:16;;;;;;;;;;;;;;;8.34;nan;100051.59;4923439;29;19970;-72
2022/05/07 03:15:42;;;;;;;;;;;;;;;8.30;nan;100054.44;4908791;29;20438;-72
2022/05/07 03:18:15;;;;;;;;;;;;;;;8.20;nan;100054.88;4928819;29;19974;-72
2022/05/07 03:20:41;;;;;;;;;;;;;;;8.14;nan;100056.94;4928225;29;20075;-72
2022/05/07 03:23:08;;;;;;;;;;;;;;;8.13;nan;100055.25;4924429;29;20499;-72
2022/05/07 03:25:34;;;;;;;;;;;;;;;8.12;nan;100049.13;4928506;29;19975;-72
2022/05/07 03:28:03;;;;;;;;;;;;;;;8.13;nan;100057.88;4925141;29;19972;-73
2022/05/07 03:30:29;;;;;;;;;;;;;;;8.05;nan;100055.59;4910419;29;20471;-72
2022/05/07 03:32:58;;;;;;;;;;;;;;;7.95;nan;100054.31;4913096;29;19970;-73
2022/05/07 03:35:24;;;;;;;;;;;;;;;7.87;nan;100061.66;4925016;29;20205;-73
2022/05/07 03:37:50;;;;;;;;;;;;;;;7.81;nan;100059.34;4925913;29;19973;-73
2022/05/07 03:40:15;;;;;;;;;;;;;;;7.75;nan;100061.31;4925872;29;19976;-73
2022/05/07 03:42:43;;;;;;;;;;;;;;;7.74;nan;100059.59;4944711;28;19990;-73
2022/05/07 03:45:08;;;;;;;;;;;;;;;7.72;nan;100061.44;4925874;29;20083;-72
2022/05/07 03:47:36;;;;;;;;;;;;;;;7.71;nan;100066.72;4926549;29;19970;-72
2022/05/07 03:50:01;;;;;;;;;;;;;;;7.66;nan;100056.47;4912656;29;20507;-73
2022/05/07 03:55:14;;;;;;;;;;;;;;;7.60;nan;100059.34;4938980;28;19972;-72
2022/05/07 03:57:40;;;;;;;;;;;;;;;7.56;nan;100065.66;4923580;29;20056;-72
2022/05/07 04:00:06;;;;;;;;;;;;;;;7.53;nan;100068.38;4926032;29;20512;-73
2022/05/07 04:02:39;;;;;;;;;;;;;;;7.49;nan;100072.06;4914650;29;19976;-72
2022/05/07 04:05:07;;;;;;;;;;;;;;;7.40;nan;100069.81;4923458;29;20183;-72
2022/05/07 04:07:33;;;;;;;;;;;;;;;7.30;nan;100075.44;4939167;29;19969;-72
2022/05/07 04:10:04;;;;;;;;;;;;;;;;;;4924971;29;20026;-72
2022/05/07 04:12:33;;;;;;;;;;;;;;;;;;4925113;29;20493;-72
2022/05/07 04:15:00;;;;;;;;;;;;;;;;;;4923929;29;19974;-72
2022/05/07 04:17:26;;;;;;;;;;;;;;;;;;4921939;29;19966;-72
2022/05/07 04:19:55;;;;;;;;;;;;;;;;;;4925367;29;19976;-72
2022/05/07 04:22:20;;;;;;;;;;;;;;;;;;4940359;29;20072;-72
2022/05/07 04:24:45;;;;;;;;;;;;;;;;;;4924853;29;19970;-72
2022/05/07 04:27:12;;;;;;;;;;;;;;;7.33;nan;100066.63;4920360;29;20422;-72
2022/05/07 04:29:39;;;;;;;;;;;;;;;7.39;nan;100063.75;4943898;29;20482;-72
2022/05/07 04:32:16;;;;;;;;;;;;;;;7.47;nan;100077.34;4926074;29;19993;-71
2022/05/07 04:34:47;;;;;;;;;;;;;;;7.50;nan;100076.34;4942746;29;20354;-72
2022/05/07 04:37:13;;;;;;;;;;;;;;;7.54;nan;100068.31;4919291;29;20450;-71
2022/05/07 04:39:38;;;;;;;;;;;;;;;7.60;nan;100061.97;4940952;29;20485;-71
2022/05/07 04:42:06;;;;;;;;;;;;;;;7.68;nan;100067.72;4924047;29;20538;-72
2022/05/07 04:44:45;;;;;;;;;;;;;;;7.77;nan;100069.06;4907259;29;19980;-72
2022/05/07 04:47:19;;;;;;;;;;;;;;;7.88;nan;100074.66;4905118;29;19969;-72
2022/05/07 04:49:46;;;;;;;;;;;;;;;8.02;nan;100078.41;4926466;29;19990;-72
2022/05/07 04:52:12;;;;;;;;;;;;;;;8.16;nan;100078.66;4923691;29;20048;-71
2022/05/07 04:54:38;;;;;;;;;;;;;;;8.27;nan;100080.78;4926567;29;19970;-73
2022/05/07 04:57:06;;;;;;;;;;;;;;;8.48;nan;100085.03;4922949;29;20446;-74
2022/05/07 04:59:42;;;;;;;;;;;;;;;8.84;nan;100082.41;4917823;29;20013;-72
2022/05/07 05:02:12;;;;;;;;;;;;;;;9.24;nan;100083.06;4926512;29;19969;-72
2022/05/07 05:04:42;;;;;;;;;;;;;;;9.70;nan;100085.09;4938420;28;20018;-72
2022/05/07 05:07:12;;;;;;;;;;;;;;;10.13;nan;100081.03;4921324;29;19970;-73
2022/05/07 05:09:41;;;;;;;;;;;;;;;10.51;nan;100087.75;4925650;29;19989;-74
2022/05/07 05:12:14;;;;;;;;;;;;;;;10.94;nan;100087.97;4942177;28;20077;-73
2022/05/07 05:15:01;;;;;;;;;;;;;;;11.29;nan;100081.50;4930392;29;19956;-72
2022/05/07 05:17:40;;;;;;;;;;;;;;;11.55;nan;100080.88;4929694;29;20350;-73
2022/05/07 05:20:07;;;;;;;;;;;;;;;11.67;nan;100080.16;4925415;29;19959;-73
2022/05/07 05:22:33;;;;;;;;;;;;;;;11.83;nan;100077.44;4949528;28;20403;-72
2022/05/07 05:25:05;;;;;;;;;;;;;;;11.96;nan;100081.00;4933213;29;19976;-72
2022/05/07 05:27:31;;;;;;;;;;;;;;;12.13;nan;100083.44;4933413;29;20033;-74
2022/05/07 05:29:57;;;;;;;;;;;;;;;12.36;nan;100084.63;4942916;28;20463;-73
2022/05/07 05:32:23;;;;;;;;;;;;;;;12.59;nan;100080.53;4933527;29;19974;-74
2022/05/07 05:34:53;;;;;;;;;;;;;;;12.68;nan;100083.50;4930226;29;20303;-74
2022/05/07 05:37:22;;;;;;;;;;;;;;;12.71;nan;100088.59;4926572;29;20090;-73
2022/05/07 05:39:48;;;;;;;;;;;;;;;12.64;nan;100085.50;4929660;29;20435;-73
2022/05/07 05:42:15;;;;;;;;;;;;;;;12.56;nan;100091.28;4930651;29;20454;-73
2022/05/07 05:44:42;;;;;;;;;;;;;;;12.39;nan;100095.00;4944124;28;19998;-72
2022/05/07 05:47:11;;;;;;;;;;;;;;;12.31;nan;100096.38;4947815;28;19965;-73
2022/05/07 05:49:37;;;;;;;;;;;;;;;12.53;nan;100104.66;4923304;29;20013;-73
2022/05/07 05:52:04;;;;;;;;;;;;;;;12.94;nan;100097.63;4912107;29;19982;-73
2022/05/07 05:54:30;;;;;;;;;;;;;;;13.31;nan;100096.06;4941888;28;19978;-73
2022/05/07 05:56:59;;;;;;;;;;;;;;;13.84;nan;100094.19;4932446;29;20046;-72
2022/05/07 05:59:24;;;;;;;;;;;;;;;14.43;nan;100096.22;4922459;29;19933;-75
2022/05/07 06:01:53;;;;;;;;;;;;;;;14.94;nan;100095.19;4928938;29;19925;-73
2022/05/07 06:04:33;;;;;;;;;;;;;;;15.46;nan;100088.63;4930301;29;20091;-72
2022/05/07 06:07:06;;;;;;;;;;;;;;;15.89;nan;100090.66;4917092;29;20052;-73
2022/05/07 06:09:33;;;;;;;;;;;;;;;16.30;nan;100078.56;4918121;29;19949;-72
2022/05/07 06:11:59;;;;;;;;;;;;;;;16.76;nan;100082.81;4925725;29;19942;-73
2022/05/07 06:14:28;;;;;;;;;;;;;;;17.02;nan;100075.38;4925815;29;19976;-73
2022/05/07 06:16:57;;;;;;;;;;;;;;;17.26;nan;100072.50;4929150;29;19933;-73
2022/05/07 06:19:23;;;;;;;;;;;;;;;17.15;nan;100072.56;4926309;29;19965;-73
2022/05/07 06:21:52;;;;;;;;;;;;;;;16.72;nan;100076.91;4925946;29;20001;-74
2022/05/07 06:29:49;;;;;;;;;;;;;;;17.50;nan;100068.72;4942367;29;20080;-72
2022/05/07 06:32:15;;;;;;;;;;;;;;;17.76;nan;100066.50;4924008;29;20088;-72
2022/05/07 06:34:40;;;;;;;;;;;;;;;17.91;nan;100071.34;4925605;29;19965;-73
2022/05/07 06:37:06;;;;;;;;;;;;;;;17.87;nan;100069.91;4925595;29;19987;-72
2022/05/07 06:39:34;;;;;;;;;;;;;;;17.97;nan;100072.63;4924746;29;20056;-72
2022/05/07 06:41:59;;;;;;;;;;;;;;;17.99;nan;100067.19;4922529;29;20476;-73
2022/05/07 06:44:25;;;;;;;;;;;;;;;18.02;nan;100065.09;4922991;29;19954;-73
2022/05/07 06:46:50;;;;;;;;;;;;;;;18.28;nan;100067.28;4920685;29;19955;-74
2022/05/07 06:49:18;;;;;;;;;;;;;;;18.64;nan;100067.66;4928781;29;20482;-73
2022/05/07 06:51:52;;;;;;;;;;;;;;;18.92;nan;100066.00;4916159;29;20176;-73
2022/05/07 06:54:17;;;;;;;;;;;;;;;19.16;nan;100063.75;4919138;29;19919;-72
2022/05/07 06:56:43;;;;;;;;;;;;;;;19.36;nan;100067.25;4921633;29;20396;-73
2022/05/07 06:59:10;;;;;;;;;;;;;;;19.30;nan;100066.97;4912714;29;20027;-73
2022/05/07 07:01:35;;;;;;;;;;;;;;;19.22;nan;100070.31;4915731;29;19930;-73
2022/05/07 07:04:00;;;;;;;;;;;;;;;19.41;nan;100058.81;4924810;29;19931;-73
2022/05/07 07:06:26;;;;;;;;;;;;;;;19.71;nan;100062.25;4923149;29;19936;-73
2022/05/07 07:08:53;;;;;;;;;;;;;;;19.84;nan;100060.94;4922221;29;19975;-71
2022/05/07 07:11:20;;;;;;;;;;;;;;;20.13;nan;100054.66;4923231;29;19943;-71
2022/05/07 07:13:46;;;;;;;;;;;;;;;20.32;nan;100048.38;4914928;29;19936;-72
2022/05/07 07:16:11;;;;;;;;;;;;;;;20.45;nan;100042.69;4926492;29;19974;-73
2022/05/07 07:18:36;;;;;;;;;;;;;;;20.52;nan;100043.75;4915788;29;19966;-72
2022/05/07 07:21:02;;;;;;;;;;;;;;;20.65;nan;100041.56;4913908;29;19988;-73
2022/05/07 07:23:27;;;;;;;;;;;;;;;20.87;nan;100042.94;4916656;29;20477;-71
2022/05/07 07:25:53;;;;;;;;;;;;;;;21.19;nan;100036.19;4915360;29;19969;-72
2022/05/07 07:28:18;;;;;;;;;;;;;;;21.16;nan;100039.19;4927911;29;20447;-74
2022/05/07 07:30:43;;;;;;;;;;;;;;;21.23;nan;100032.22;4923180;29;20107;-71
2022/05/07 07:33:11;;;;;;;;;;;;;;;21.36;nan;100032.66;4921559;29;19974;-73
2022/05/07 07:35:37;;;;;;;;;;;;;;;21.31;nan;100032.28;4918969;29;19966;-75
2022/05/07 07:38:02;;;;;;;;;;;;;;;21.51;nan;100026.75;4920519;29;19989;-71
2022/05/07 07:40:29;;;;;;;;;;;;;;;21.59;nan;100034.81;4921735;29;19970;-72
2022/05/07 07:42:54;;;;;;;;;;;;;;;21.63;nan;100029.00;4916309;29;19981;-72
2022/05/07 07:48:04;;;;;;;;;;;;;;;21.74;nan;100032.38;4918172;29;19981;-73
2022/05/07 07:50:34;;;;;;;;;;;;;;;21.94;nan;100038.34;4917490;29;20044;-72
2022/05/07 07:53:00;;;;;;;;;;;;;;;22.11;nan;100037.41;4910669;29;19986;-72
2022/05/07 07:55:26;;;;;;;;;;;;;;;22.36;nan;100038.38;4927896;29;20025;-73
2022/05/07 07:57:53;;;;;;;;;;;;;;;22.45;nan;100039.22;4918687;29;20441;-73
2022/05/07 08:00:18;;;;;;;;;;;;;;;22.38;nan;100032.84;4911749;29;20019;-71
2022/05/07 08:02:51;;;;;;;;;;;;;;;22.31;nan;100025.47;4916469;29;19973;-73
2022/05/07 08:05:19;;;;;;;;;;;;;;;22.38;nan;100022.97;4921909;29;20587;-71
2022/05/07 08:13:14;;;;;;;;;;;;;;;22.30;nan;100022.94;4912005;29;19970;-73
2022/05/07 08:15:40;;;;;;;;;;;;;;;22.08;nan;100030.53;4934442;28;20101;-73
2022/05/07 08:18:05;;;;;;;;;;;;;;;21.98;nan;100029.84;4944901;28;20432;-73
2022/05/07 08:20:31;;;;;;;;;;;;;;;22.04;nan;100020.34;4943887;28;19964;-72
2022/05/07 08:22:56;;;;;;;;;;;;;;;21.92;nan;100032.31;4960542;28;20170;-73
2022/05/07 08:25:22;;;;;;;;;;;;;;;21.98;nan;100023.63;4945082;28;20078;-73
2022/05/07 08:27:47;;;;;;;;;;;;;;;22.04;nan;100017.66;4930663;28;19969;-74
2022/05/07 08:30:13;;;;;;;;;;;;;;;22.01;nan;100015.31;4947745;28;20031;-73
2022/05/07 08:32:39;;;;;;;;;;;;;;;21.88;nan;100016.59;4969791;23;20416;-78
2022/05/07 08:35:04;;;;;;;;;;;;;;;21.60;nan;100020.44;4965591;28;19981;-78
2022/05/07 08:37:30;;;;;;;;;;;;;;;21.45;nan;100020.22;4970220;28;19936;-78
2022/05/07 08:40:01;;;;;;;;;;;;;;;21.40;nan;100012.66;4967094;28;20615;-78
2022/05/07 08:42:30;;;;;;;;;;;;;;;21.33;nan;100021.41;4974231;28;20038;-77
2022/05/07 08:44:56;;;;;;;;;;;;;;;21.25;nan;100010.69;4975055;28;20469;-77
2022/05/07 08:47:23;;;;;;;;;;;;;;;21.30;nan;100013.72;4974482;28;19984;-78
2022/05/07 08:49:49;;;;;;;;;;;;;;;21.41;nan;100014.34;4973268;28;20027;-78
2022/05/07 08:52:14;;;;;;;;;;;;;;;21.41;nan;100014.34;4977869;28;20026;-78
2022/05/07 08:54:39;;;;;;;;;;;;;;;21.53;nan;100008.72;4975090;28;20458;-78
2022/05/07 08:57:05;;;;;;;;;;;;;;;21.61;nan;100006.09;4976677;28;19961;-76
2022/05/07 08:59:31;;;;;;;;;;;;;;;21.71;nan;99998.81;4970301;28;20326;-76
2022/05/07 09:01:56;;;;;;;;;;;;;;;21.64;nan;99998.59;4989494;28;19979;-78
2022/05/07 09:04:21;;;;;;;;;;;;;;;21.84;nan;99991.16;4971985;28;19972;-78
2022/05/07 09:06:54;;;;;;;;;;;;;;;21.91;nan;99995.88;4976104;28;19972;-78
2022/05/07 09:09:19;;;;;;;;;;;;;;;21.90;nan;99988.84;4970523;28;19984;-78
2022/05/07 09:11:44;;;;;;;;;;;;;;;21.83;nan;99997.50;4972182;28;19991;-78
2022/05/07 09:14:11;;;;;;;;;;;;;;;21.75;nan;99988.63;4975734;28;20007;-78
2022/05/07 09:16:47;;;;;;;;;;;;;;;21.75;nan;99983.28;4991661;28;19952;-79
2022/05/07 09:19:22;;;;;;;;;;;;;;;21.84;nan;99983.13;4976217;28;20537;-78
2022/05/07 09:21:48;;;;;;;;;;;;;;;21.95;nan;99976.66;4970848;28;19986;-79
2022/05/07 09:24:13;;;;;;;;;;;;;;;22.02;nan;99984.88;4973671;28;20408;-78
2022/05/07 09:26:40;;;;;;;;;;;;;;;22.16;nan;99975.38;4978442;28;20429;-78
2022/05/07 09:29:10;;;;;;;;;;;;;;;22.27;nan;99977.78;4883238;28;20014;-78
2022/05/07 09:31:36;;;;;;;;;;;;;;;22.31;nan;99971.94;5016509;28;20004;-79
2022/05/07 09:37:12;;;;;;;;;;;;;;;22.44;nan;99967.94;5010840;28;20408;-78
2022/05/07 09:39:37;;;;;;;;;;;;;;;22.55;nan;99964.97;5022192;28;19968;-78
2022/05/07 09:42:03;;;;;;;;;;;;;;;22.54;nan;99960.59;5013007;28;20038;-78
2022/05/07 09:44:28;;;;;;;;;;;;;;;22.58;nan;99961.94;5013321;28;19964;-79
2022/05/07 09:46:57;;;;;;;;;;;;;;;22.60;nan;99951.91;5016052;28;20039;-78
2022/05/07 09:49:24;;;;;;;;;;;;;;;22.58;nan;99961.94;5021880;28;19992;-79
2022/05/07 09:51:50;;;;;;;;;;;;;;;22.74;nan;99955.75;5019032;28;20007;-78
2022/05/07 09:59:50;;;;;;;;;;;;;;;22.99;nan;99953.91;5012334;28;20405;-79
2022/05/07 10:02:30;;;;;;;;;;;;;;;22.92;nan;99953.72;5028508;28;20080;-79
2022/05/07 10:05:15;;;;;;;;;;;;;;;22.93;nan;99954.56;4990153;28;20332;-77
2022/05/07 10:07:46;;;;;;;;;;;;;;;23.09;nan;99943.03;4988919;28;19973;-77
2022/05/07 10:10:28;;;;;;;;;;;;;;;23.24;nan;99948.50;4989050;28;20107;-77
2022/05/07 10:12:55;;;;;;;;;;;;;;;23.44;nan;99939.09;4989341;28;20014;-77
2022/05/07 10:15:23;;;;;;;;;;;;;;;23.54;nan;99945.06;4987514;28;19971;-78
2022/05/07 10:18:01;;;;;;;;;;;;;;;23.53;nan;99942.56;4985622;28;19973;-77
2022/05/07 10:20:32;;;;;;;;;;;;;;;23.44;nan;99936.41;4986004;28;19973;-77
2022/05/07 10:22:58;;;;;;;;;;;;;;;23.46;nan;99933.53;4990022;28;19988;-77
2022/05/07 10:25:23;;;;;;;;;;;;;;;23.50;nan;99932.19;4989497;28;20428;-77
2022/05/07 10:27:49;;;;;;;;;;;;;;;23.51;nan;99925.81;4986126;28;20004;-77
2022/05/07 10:30:17;;;;;;;;;;;;;;;23.43;nan;99932.03;4987395;28;19985;-77
2022/05/07 10:32:48;;;;;;;;;;;;;;;23.45;nan;99923.81;4989739;28;20020;-77
2022/05/07 10:35:14;;;;;;;;;;;;;;;23.31;nan;99923.53;4986139;28;20074;-77
2022/05/07 10:37:40;;;;;;;;;;;;;;;22.96;nan;99930.16;4985128;28;19964;-77
2022/05/07 10:40:10;;;;;;;;;;;;;;;22.60;nan;99930.50;4988498;28;20360;-77
2022/05/07 10:42:39;;;;;;;;;;;;;;;22.13;nan;99931.06;4989717;28;20416;-78
2022/05/07 10:45:06;;;;;;;;;;;;;;;21.86;nan;99919.63;4986383;28;19964;-78
2022/05/07 10:47:31;;;;;;;;;;;;;;;22.03;nan;99920.50;4984801;28;20421;-78
2022/05/07 10:50:13;;;;;;;;;;;;;;;22.26;nan;99918.06;4987141;28;20036;-78
2022/05/07 10:52:38;;;;;;;;;;;;;;;22.40;nan;99915.75;4987450;28;20333;-77
2022/05/07 10:55:08;;;;;;;;;;;;;;;22.56;nan;99906.88;4989444;28;20372;-79
2022/05/07 10:57:44;;;;;;;;;;;;;;;22.83;nan;99908.38;4990878;28;19971;-77
2022/05/07 11:00:17;;;;;;;;;;;;;;;23.05;nan;99913.03;4993736;28;19968;-78
2022/05/07 11:02:42;;;;;;;;;;;;;;;23.14;nan;99903.13;4992993;28;20420;-77
2022/05/07 11:05:08;;;;;;;;;;;;;;;23.11;nan;99904.31;4989753;28;20444;-78
2022/05/07 11:07:33;;;;;;;;;;;;;;;23.14;nan;99895.09;4990829;28;19964;-78
2022/05/07 11:09:59;;;;;;;;;;;;;;;23.16;nan;99895.78;4991332;28;20020;-78
2022/05/07 11:12:26;;;;;;;;;;;;;;;23.10;nan;99889.25;4997082;28;20028;-78
2022/05/07 11:14:52;;;;;;;;;;;;;;;23.01;nan;99886.75;5012793;28;19969;-78
2022/05/07 11:17:27;;;;;;;;;;;;;;;23.01;nan;99892.09;5009739;28;19999;-78
2022/05/07 11:19:53;;;;;;;;;;;;;;;23.07;nan;99883.41;5011466;28;19972;-78
2022/05/07 11:22:23;;;;;;;;;;;;;;;23.13;nan;99886.22;5011350;28;19968;-78
2022/05/07 11:24:55;;;;;;;;;;;;;;;23.20;nan;99883.72;4998937;28;20437;-77
2022/05/07 11:27:20;;;;;;;;;;;;;;;23.16;nan;99885.88;4990519;28;19969;-77
2022/05/07 11:29:45;;;;;;;;;;;;;;;23.10;nan;99891.94;4987109;28;19991;-77
2022/05/07 11:32:12;;;;;;;;;;;;;;;23.09;nan;99881.41;4988703;28;20000;-77
2022/05/07 11:34:38;;;;;;;;;;;;;;;23.15;nan;99873.50;4988186;28;20460;-77
2022/05/07 11:37:11;;;;;;;;;;;;;;;23.17;nan;99884.06;4991639;28;19965;-78
2022/05/07 11:39:50;;;;;;;;;;;;;;;23.10;nan;99881.22;5010489;28;20063;-77
2022/05/07 11:42:31;;;;;;;;;;;;;;;23.11;nan;99888.22;5011490;28;19991;-79
2022/05/07 11:47:51;;;;;;;;;;;;;;;23.08;nan;99869.00;5002327;28;20011;-78
2022/05/07 11:50:21;;;;;;;;;;;;;;;23.11;nan;99866.78;4988025;28;19988;-78
2022/05/07 11:52:46;;;;;;;;;;;;;;;23.07;nan;99872.69;4996571;28;20363;-79
2022/05/07 11:55:12;;;;;;;;;;;;;;;23.04;nan;99862.31;4996037;28;19965;-80
2022/05/07 11:57:44;;;;;;;;;;;;;;;22.86;nan;99866.00;4996764;28;20421;-80
2022/05/07 12:00:16;;;;;;;;;;;;;;;22.72;nan;99872.06;4995462;28;20317;-80
2022/05/07 12:02:48;;;;;;;;;;;;;;;22.68;nan;99855.50;4998841;28;20633;-80
2022/05/07 12:05:13;;;;;;;;;;;;;;;22.48;nan;99854.19;4995992;28;19971;-78
2022/05/07 12:07:39;;;;;;;;;;;;;;;22.35;nan;99862.72;4987422;28;19968;-79
2022/05/07 12:10:09;;;;;;;;;;;;;;;22.43;nan;99852.00;4989474;28;19995;-79
2022/05/07 12:12:35;;;;;;;;;;;;;;;22.49;nan;99858.53;4991651;28;19980;-80
2022/05/07 12:15:00;;;;;;;;;;;;;;;22.51;nan;99856.53;4989686;28;19969;-79
2022/05/07 12:20:09;;;;;;;;;;;;;;;22.66;nan;99848.66;4993485;28;19972;-80
2022/05/07 12:30:48;;;;;;;;;;;;;;;22.99;nan;99835.22;4991818;28;19988;-79
2022/05/07 12:33:13;;;;;;;;;;;;;;;23.07;nan;99838.69;4986317;28;19999;-80
2022/05/07 12:35:39;;;;;;;;;;;;;;;23.15;nan;99841.34;4989114;28;20622;-80
2022/05/07 12:38:05;;;;;;;;;;;;;;;23.18;nan;99837.47;4984951;28;19976;-80
2022/05/07 12:40:30;;;;;;;;;;;;;;;23.24;nan;99827.91;4991483;28;19977;-80
2022/05/07 12:42:57;;;;;;;;;;;;;;;23.24;nan;99835.94;4986281;28;19988;-79
2022/05/07 12:45:23;;;;;;;;;;;;;;;23.11;nan;99828.47;4996799;28;19973;-80
2022/05/07 12:47:48;;;;;;;;;;;;;;;23.03;nan;99834.66;4989262;28;20200;-80
2022/05/07 12:50:14;;;;;;;;;;;;;;;23.03;nan;99832.00;4988702;28;20119;-80
2022/05/07 12:52:39;;;;;;;;;;;;;;;23.03;nan;99828.47;4991030;28;19996;-80
2022/05/07 12:55:04;;;;;;;;;;;;;;;23.06;nan;99823.63;5000008;28;20071;-80
2022/05/07 12:57:30;;;;;;;;;;;;;;;23.11;nan;99831.97;4987922;28;19977;-79
2022/05/07 12:59:56;;;;;;;;;;;;;;;23.18;nan;99834.81;4988499;28;20372;-79
2022/05/07 13:02:21;;;;;;;;;;;;;;;22.93;nan;99831.34;4987910;28;20547;-79
2022/05/07 13:04:46;;;;;;;;;;;;;;;22.66;nan;99832.59;4984810;28;19984;-79
2022/05/07 13:07:12;;;;;;;;;;;;;;;22.56;nan;99832.75;4982040;28;19977;-79
2022/05/07 13:09:37;;;;;;;;;;;;;;;22.58;nan;99833.44;4987859;28;19988;-79
2022/05/07 13:12:03;;;;;;;;;;;;;;;22.68;nan;99826.06;4988939;28;20298;-79
2022/05/07 13:14:30;;;;;;;;;;;;;;;22.89;nan;99819.28;4987674;28;19974;-79
2022/05/07 13:16:56;;;;;;;;;;;;;;;22.95;nan;99818.59;4989253;28;20420;-79
2022/05/07 13:19:23;;;;;;;;;;;;;;;23.04;nan;99809.56;4988997;28;19976;-78
2022/05/07 13:21:49;;;;;;;;;;;;;;;23.07;nan;99811.91;4988111;28;20009;-79
2022/05/07 13:24:15;;;;;;;;;;;;;;;23.07;nan;99814.59;4985296;28;19964;-80
2022/05/07 13:26:41;;;;;;;;;;;;;;;23.07;nan;99814.59;4985323;28;20301;-80
2022/05/07 13:29:06;;;;;;;;;;;;;;;23.05;nan;99797.84;4968515;28;19968;-80
2022/05/07 13:31:35;;;;;;;;;;;;;;;23.08;nan;99800.16;4993891;28;20007;-80
2022/05/07 13:34:00;;;;;;;;;;;;;;;23.07;nan;99798.50;4991852;28;20333;-81
2022/05/07 13:36:25;;;;;;;;;;;;;;;23.12;nan;99793.47;4990049;28;20079;-80
2022/05/07 13:38:51;;;;;;;;;;;;;;;23.15;nan;99803.81;4974702;28;19976;-80
2022/05/07 13:41:20;;;;;;;;;;;;;;;23.02;nan;99798.19;4992285;28;19980;-82
2022/05/07 13:43:46;;;;;;;;;;;;;;;22.96;nan;99796.22;4991748;28;20404;-81
2022/05/07 13:46:11;;;;;;;;;;;;;;;22.97;nan;99798.69;4991918;28;20436;-81
2022/05/07 13:48:36;;;;;;;;;;;;;;;23.00;nan;99791.34;4994375;28;19970;-81
2022/05/07 13:51:05;;;;;;;;;;;;;;;23.10;nan;99790.13;4995505;28;19992;-81
2022/05/07 13:53:30;;;;;;;;;;;;;;;23.21;nan;99790.75;4993339;28;20079;-79
2022/05/07 13:55:55;;;;;;;;;;;;;;;23.31;nan;99789.53;4992665;28;20995;-79
2022/05/07 13:58:20;;;;;;;;;;;;;;;23.38;nan;99789.63;4992280;28;19973;-80